createdAt,value
2023-02-09T00:00:29.236Z,19.67
2023-02-09T00:03:16.881Z,20.98
2023-02-09T00:06:06.885Z,20.67
2023-02-09T00:08:56.472Z,20.90
2023-02-09T00:12:01.629Z,17.52
2023-02-09T00:14:50.508Z,19.70
2023-02-09T00:17:38.770Z,19.95
2023-02-09T00:20:26.317Z,20.60
2023-02-09T00:23:13.978Z,18.77
2023-02-09T00:26:02.961Z,18.88
2023-02-09T00:28:50.466Z,23.27
2023-02-09T00:31:40.097Z,19.90
2023-02-09T00:34:27.961Z,19.42
2023-02-09T00:37:15.509Z,18.92
2023-02-09T00:40:03.412Z,18.40
2023-02-09T00:42:51.577Z,20.00
2023-02-09T00:45:39.194Z,17.15
2023-02-09T00:48:28.154Z,16.05
2023-02-09T00:51:16.305Z,21.38
2023-02-09T00:54:04.856Z,16.00
2023-02-09T00:56:52.995Z,21.45
2023-02-09T00:59:42.623Z,18.02
2023-02-09T01:02:30.675Z,19.77
2023-02-09T01:05:20.292Z,19.80
2023-02-09T01:08:07.990Z,18.45
2023-02-09T01:10:55.686Z,19.98
2023-02-09T01:13:44.631Z,18.25
2023-02-09T01:16:32.936Z,16.48
2023-02-09T01:19:20.906Z,18.25
2023-02-09T01:22:10.231Z,18.25
2023-02-09T01:24:57.676Z,18.75
2023-02-09T01:27:45.212Z,16.75
2023-02-09T01:30:32.833Z,15.75
2023-02-09T01:33:20.481Z,17.42
2023-02-09T01:36:09.752Z,19.50
2023-02-09T01:39:01.984Z,15.70
2023-02-09T01:41:49.547Z,17.65
2023-02-09T01:45:29.618Z,18.25
2023-02-09T01:48:20.112Z,19.27
2023-02-09T01:51:08.305Z,17.42
2023-02-09T01:53:58.287Z,18.70
2023-02-09T01:56:53.040Z,18.52
2023-02-09T01:59:44.523Z,17.92
2023-02-09T02:02:32.769Z,15.90
2023-02-09T02:05:22.221Z,16.92
2023-02-09T02:08:17.961Z,14.00
2023-02-09T02:11:09.718Z,16.45
2023-02-09T02:13:58.293Z,16.20
2023-02-09T02:16:57.953Z,14.98
2023-02-09T02:20:54.370Z,19.25
2023-02-09T02:24:01.792Z,15.85
2023-02-09T02:26:57.810Z,14.43
2023-02-09T02:30:22.232Z,15.52
2023-02-09T02:33:27.973Z,43.67
2023-02-09T02:36:29.301Z,23.02
2023-02-09T02:39:27.528Z,21.38
2023-02-09T02:42:41.109Z,21.58
2023-02-09T02:45:41.260Z,22.60
2023-02-09T02:48:41.099Z,19.67
2023-02-09T02:51:34.394Z,18.92
2023-02-09T02:54:29.232Z,22.30
2023-02-09T02:57:22.561Z,18.98
2023-02-09T03:00:15.725Z,20.90
2023-02-09T03:05:58.113Z,18.90
2023-02-09T03:08:51.503Z,15.40
2023-02-09T03:11:45.345Z,16.08
2023-02-09T03:14:48.397Z,20.27
2023-02-09T03:17:47.808Z,18.20
2023-02-09T03:20:48.076Z,17.85
2023-02-09T03:23:46.056Z,17.92
2023-02-09T03:26:43.111Z,19.10
2023-02-09T03:29:35.023Z,21.52
2023-02-09T03:32:24.758Z,17.37
2023-02-09T03:35:18.357Z,14.27
2023-02-09T03:38:07.404Z,25.20
2023-02-09T03:40:59.768Z,16.55
2023-02-09T03:44:05.369Z,15.38
2023-02-09T03:46:52.838Z,15.32
2023-02-09T03:49:43.402Z,19.48
2023-02-09T03:52:31.661Z,17.95
2023-02-09T03:55:19.900Z,15.10
2023-02-09T03:58:09.176Z,15.73
2023-02-09T04:01:02.680Z,12.07
2023-02-09T04:03:50.608Z,15.13
2023-02-09T04:06:39.077Z,13.88
2023-02-09T04:09:28.749Z,12.95
2023-02-09T04:12:16.547Z,15.65
2023-02-09T04:15:06.506Z,12.98
2023-02-09T04:17:54.676Z,14.98
2023-02-09T04:20:42.891Z,17.85
2023-02-09T04:23:30.779Z,14.48
2023-02-09T04:26:18.863Z,14.10
2023-02-09T04:29:06.702Z,12.18
2023-02-09T04:31:56.021Z,14.10
2023-02-09T04:34:43.816Z,16.83
2023-02-09T04:37:31.405Z,16.27
2023-02-09T04:40:19.320Z,15.13
2023-02-09T04:43:06.684Z,13.57
2023-02-09T04:45:54.683Z,14.93
2023-02-09T04:48:45.692Z,14.40
2023-02-09T04:51:33.320Z,14.20
2023-02-09T04:54:20.949Z,14.90
2023-02-09T04:57:26.484Z,15.38
2023-02-09T05:00:18.902Z,13.00
2023-02-09T05:03:06.507Z,12.10
2023-02-09T05:05:58.292Z,13.55
2023-02-09T05:08:45.897Z,13.50
2023-02-09T05:11:33.555Z,15.82
2023-02-09T05:14:21.371Z,14.05
2023-02-09T05:17:09.269Z,15.90
2023-02-09T05:19:59.258Z,13.55
2023-02-09T05:22:50.088Z,13.73
2023-02-09T05:25:41.131Z,14.40
2023-02-09T05:28:29.098Z,15.60
2023-02-09T05:31:17.970Z,15.75
2023-02-09T05:34:05.833Z,15.85
2023-02-09T05:36:55.957Z,16.38
2023-02-09T05:39:45.101Z,14.38
2023-02-09T05:42:33.138Z,13.20
2023-02-09T05:45:23.836Z,15.30
2023-02-09T05:48:12.112Z,22.15
2023-02-09T05:51:02.249Z,16.13
2023-02-09T05:53:50.340Z,13.05
2023-02-09T05:56:40.749Z,15.48
2023-02-09T05:59:31.799Z,13.82
2023-02-09T06:02:19.463Z,15.50
2023-02-09T06:05:08.054Z,18.30
2023-02-09T06:07:56.553Z,13.50
2023-02-09T06:10:45.021Z,14.93
2023-02-09T06:13:34.806Z,13.77
2023-02-09T06:16:23.083Z,13.63
2023-02-09T06:19:14.958Z,14.48
2023-02-09T06:22:05.539Z,14.40
2023-02-09T06:24:53.363Z,12.88
2023-02-09T06:27:41.433Z,11.23
2023-02-09T06:30:32.650Z,13.18
2023-02-09T06:33:21.796Z,19.33
2023-02-09T06:36:11.373Z,18.35
2023-02-09T06:38:59.521Z,11.52
2023-02-09T06:41:47.412Z,15.32
2023-02-09T06:44:35.312Z,14.50
2023-02-09T06:47:24.548Z,14.43
2023-02-09T06:50:15.249Z,15.40
2023-02-09T06:53:03.801Z,14.10
2023-02-09T06:55:51.227Z,11.52
2023-02-09T06:58:40.322Z,13.57
2023-02-09T07:01:28.020Z,12.13
2023-02-09T07:04:16.991Z,12.43
2023-02-09T07:07:04.417Z,10.93
2023-02-09T07:09:52.064Z,12.68
2023-02-09T07:12:40.773Z,11.93
2023-02-09T07:15:31.657Z,12.38
2023-02-09T07:18:19.265Z,15.38
2023-02-09T07:21:10.976Z,13.68
2023-02-09T07:24:00.794Z,11.20
2023-02-09T07:26:48.641Z,13.52
2023-02-09T07:29:36.951Z,12.32
2023-02-09T07:32:25.458Z,12.63
2023-02-09T07:35:13.129Z,18.67
2023-02-09T07:38:02.489Z,14.68
2023-02-09T07:40:50.540Z,10.52
2023-02-09T07:43:38.304Z,16.52
2023-02-09T07:46:26.521Z,18.83
2023-02-09T07:49:17.348Z,14.40
2023-02-09T07:52:05.538Z,22.88
2023-02-09T07:54:54.349Z,19.98
2023-02-09T07:57:42.088Z,20.20
2023-02-09T08:00:29.610Z,22.90
2023-02-09T08:03:20.788Z,20.38
2023-02-09T08:06:19.686Z,17.23
2023-02-09T08:09:09.538Z,15.18
2023-02-09T08:12:04.008Z,17.33
2023-02-09T08:14:52.070Z,15.23
2023-02-09T08:17:39.782Z,17.67
2023-02-09T08:20:31.794Z,22.85
2023-02-09T08:23:26.558Z,18.00
2023-02-09T08:26:15.976Z,17.45
2023-02-09T08:29:05.354Z,20.67
2023-02-09T08:31:53.154Z,18.55
2023-02-09T08:34:40.892Z,20.77
2023-02-09T08:37:29.194Z,14.55
2023-02-09T08:40:17.563Z,22.38
2023-02-09T08:43:06.027Z,22.85
2023-02-09T08:45:55.347Z,17.35
2023-02-09T08:48:46.575Z,18.63
2023-02-09T08:51:34.492Z,17.08
2023-02-09T08:54:22.080Z,17.23
2023-02-09T08:57:10.055Z,17.42
2023-02-09T08:59:57.675Z,14.80
2023-02-09T09:02:46.556Z,16.95
2023-02-09T09:05:36.217Z,18.70
2023-02-09T09:08:24.011Z,21.23
2023-02-09T09:11:14.672Z,21.48
2023-02-09T09:14:02.574Z,15.38
2023-02-09T09:16:50.421Z,21.13
2023-02-09T09:19:39.714Z,16.73
2023-02-09T09:22:27.751Z,16.73
2023-02-09T09:25:15.401Z,19.58
2023-02-09T09:28:03.011Z,15.52
2023-02-09T09:30:50.685Z,14.30
2023-02-09T09:33:39.581Z,20.75
2023-02-09T09:36:28.934Z,15.55
2023-02-09T09:39:17.230Z,15.38
2023-02-09T09:42:06.261Z,12.43
2023-02-09T09:44:57.211Z,11.85
2023-02-09T09:47:48.686Z,15.45
2023-02-09T09:50:43.406Z,16.02
2023-02-09T09:53:35.882Z,10.57
2023-02-09T09:56:26.074Z,12.63
2023-02-09T09:59:20.438Z,13.35
2023-02-09T10:02:23.557Z,15.93
2023-02-09T10:05:21.601Z,15.73
2023-02-09T10:08:22.038Z,17.63
2023-02-09T10:11:14.953Z,12.15
2023-02-09T10:14:02.719Z,15.40
2023-02-09T10:16:50.749Z,15.98
2023-02-09T10:19:39.215Z,13.98
2023-02-09T10:22:27.173Z,15.48
2023-02-09T10:25:49.354Z,14.93
2023-02-09T10:28:43.468Z,17.63
2023-02-09T10:31:36.629Z,21.73
2023-02-09T10:34:33.581Z,16.58
2023-02-09T10:37:34.444Z,17.73
2023-02-09T10:40:30.115Z,19.10
2023-02-09T10:43:26.987Z,14.52
2023-02-09T10:46:21.547Z,14.63
2023-02-09T10:49:30.514Z,13.23
2023-02-09T10:52:21.687Z,14.18
2023-02-09T10:55:22.718Z,14.13
2023-02-09T10:58:28.435Z,14.38
2023-02-09T11:01:24.650Z,15.82
2023-02-09T11:04:22.750Z,14.23
2023-02-09T11:07:14.204Z,16.00
2023-02-09T11:10:05.264Z,13.30
2023-02-09T11:12:52.867Z,14.20
2023-02-09T11:15:54.610Z,11.10
2023-02-09T11:18:53.156Z,16.15
2023-02-09T11:22:03.611Z,12.13
2023-02-09T11:25:13.574Z,15.18
2023-02-09T11:28:19.630Z,12.43
2023-02-09T11:31:30.371Z,13.88
2023-02-09T11:34:48.411Z,13.98
2023-02-09T11:37:47.646Z,16.20
2023-02-09T11:40:42.863Z,17.05
2023-02-09T11:43:40.430Z,14.63
2023-02-09T11:46:34.643Z,19.30
2023-02-09T11:49:28.319Z,14.93
2023-02-09T11:52:21.647Z,15.20
2023-02-09T11:55:27.556Z,17.95
2023-02-09T11:58:41.825Z,19.27
2023-02-09T12:01:42.286Z,17.45
2023-02-09T12:04:45.649Z,18.10
2023-02-09T12:10:39.902Z,16.52
2023-02-09T12:13:41.469Z,16.70
2023-02-09T12:16:38.862Z,17.02
2023-02-09T12:19:36.260Z,17.88
2023-02-09T12:22:50.736Z,18.10
2023-02-09T12:25:51.971Z,21.98
2023-02-09T12:28:44.603Z,18.42
2023-02-09T12:32:11.414Z,15.85
2023-02-09T12:35:27.665Z,19.20
2023-02-09T12:38:19.422Z,15.48
2023-02-09T12:41:09.633Z,16.35
2023-02-09T12:44:38.684Z,16.40
2023-02-09T12:47:58.318Z,16.55
2023-02-09T12:50:54.810Z,19.00
2023-02-09T12:53:47.854Z,18.00
2023-02-09T12:59:26.809Z,19.88
2023-02-09T13:02:23.988Z,20.60
2023-02-09T13:05:16.231Z,21.98
2023-02-09T13:08:17.421Z,18.02
2023-02-09T13:11:24.209Z,19.58
2023-02-09T13:14:16.279Z,20.92
2023-02-09T13:17:37.066Z,20.08
2023-02-09T13:21:03.123Z,15.13
2023-02-09T13:24:03.040Z,19.38
2023-02-09T13:26:53.464Z,23.33
2023-02-09T13:29:50.597Z,19.15
2023-02-09T13:32:51.580Z,21.08
2023-02-09T13:36:07.134Z,16.90
2023-02-09T13:39:00.415Z,18.60
2023-02-09T13:41:49.937Z,20.35
2023-02-09T13:44:37.772Z,21.67
2023-02-09T13:47:28.067Z,18.90
2023-02-09T13:50:18.959Z,18.02
2023-02-09T13:53:11.400Z,19.70
2023-02-09T13:56:02.353Z,18.98
2023-02-09T13:58:50.498Z,17.38
2023-02-09T14:01:38.915Z,17.25
2023-02-09T14:04:34.329Z,19.50
2023-02-09T14:07:26.983Z,18.70
2023-02-09T14:10:18.323Z,16.88
2023-02-09T14:13:19.525Z,17.92
2023-02-09T14:16:08.680Z,18.05
2023-02-09T14:18:58.751Z,18.00
2023-02-09T14:21:47.225Z,22.63
2023-02-09T14:24:44.432Z,20.63
2023-02-09T14:27:40.104Z,18.25
2023-02-09T14:30:32.749Z,21.65
2023-02-09T14:33:25.222Z,21.15
2023-02-09T14:36:25.493Z,25.23
2023-02-09T14:39:16.863Z,19.15
2023-02-09T14:42:20.717Z,22.27
2023-02-09T14:45:39.461Z,20.92
2023-02-09T14:48:29.437Z,20.85
2023-02-09T14:51:19.194Z,22.55
2023-02-09T14:54:25.148Z,20.67
2023-02-09T14:57:14.495Z,23.55
2023-02-09T15:00:02.673Z,23.27
2023-02-09T15:02:53.785Z,21.58
2023-02-09T15:05:41.797Z,18.45
2023-02-09T15:08:34.421Z,22.13
2023-02-09T15:11:42.834Z,24.70
2023-02-09T15:14:30.895Z,21.10
2023-02-09T15:17:23.540Z,21.30
2023-02-09T15:20:16.350Z,27.35
2023-02-09T15:25:51.557Z,24.83
2023-02-09T15:28:40.873Z,27.33
2023-02-09T15:31:29.184Z,25.63
2023-02-09T15:34:17.030Z,26.17
2023-02-09T15:37:05.861Z,25.67
2023-02-09T15:40:00.461Z,25.63
2023-02-09T15:43:05.794Z,23.17
2023-02-09T15:46:10.869Z,24.23
2023-02-09T15:48:58.499Z,22.08
2023-02-09T15:51:46.213Z,21.00
2023-02-09T15:54:35.365Z,22.60
2023-02-09T15:57:25.462Z,24.48
2023-02-09T16:00:21.344Z,19.25
2023-02-09T16:03:16.945Z,21.10
2023-02-09T16:06:14.036Z,23.63
2023-02-09T16:09:03.695Z,18.38
2023-02-09T16:11:52.604Z,20.60
2023-02-09T16:14:40.921Z,21.08
2023-02-09T16:17:28.665Z,22.13
2023-02-09T16:20:18.301Z,19.80
2023-02-09T16:23:19.646Z,21.17
2023-02-09T16:26:09.955Z,20.35
2023-02-09T16:28:59.086Z,20.58
2023-02-09T16:31:46.956Z,20.13
2023-02-09T16:34:34.672Z,24.98
2023-02-09T16:37:30.283Z,24.00
2023-02-09T16:40:28.437Z,23.02
2023-02-09T16:43:16.932Z,24.05
2023-02-09T16:46:07.041Z,25.00
2023-02-09T16:48:55.749Z,21.15
2023-02-09T16:51:43.470Z,26.23
2023-02-09T16:54:42.595Z,25.30
2023-02-09T16:57:31.010Z,25.05
2023-02-09T17:00:19.404Z,24.88
2023-02-09T17:03:15.628Z,26.00
2023-02-09T17:06:04.062Z,27.95
2023-02-09T17:08:53.239Z,26.35
2023-02-09T17:11:41.015Z,26.75
2023-02-09T17:14:28.452Z,26.92
2023-02-09T17:17:21.333Z,25.88
2023-02-09T17:20:16.796Z,25.60
2023-02-09T17:23:04.615Z,28.85
2023-02-09T17:25:55.104Z,29.92
2023-02-09T17:28:43.491Z,31.15
2023-02-09T17:31:50.863Z,30.50
2023-02-09T17:34:40.369Z,30.02
2023-02-09T17:37:29.036Z,28.73
2023-02-09T17:40:18.730Z,35.38
2023-02-09T17:43:06.901Z,31.42
2023-02-09T17:45:55.107Z,32.40
2023-02-09T17:48:42.686Z,30.50
2023-02-09T17:51:35.889Z,30.63
2023-02-09T17:54:24.696Z,40.13
2023-02-09T17:57:14.819Z,36.25
2023-02-09T18:00:03.492Z,37.95
2023-02-09T18:02:51.752Z,40.10
2023-02-09T18:05:41.119Z,43.28
2023-02-09T18:08:29.168Z,37.67
2023-02-09T18:11:18.270Z,35.78
2023-02-09T18:14:05.902Z,37.53
2023-02-09T18:16:55.141Z,42.55
2023-02-09T18:19:42.655Z,38.38
2023-02-09T18:22:30.290Z,37.47
2023-02-09T18:25:24.923Z,35.33
2023-02-09T18:28:17.037Z,35.55
2023-02-09T18:31:06.428Z,37.20
2023-02-09T18:33:54.365Z,33.35
2023-02-09T18:36:41.878Z,35.13
2023-02-09T18:39:30.677Z,33.60
2023-02-09T18:42:18.314Z,31.05
2023-02-09T18:45:08.822Z,35.47
2023-02-09T18:47:56.538Z,33.47
2023-02-09T18:50:44.144Z,30.35
2023-02-09T18:53:31.858Z,33.38
2023-02-09T18:56:21.727Z,30.33
2023-02-09T18:59:09.706Z,34.72
2023-02-09T19:01:59.761Z,30.92
2023-02-09T19:04:48.543Z,32.20
2023-02-09T19:07:37.177Z,33.55
2023-02-09T19:10:25.380Z,35.63
2023-02-09T19:13:12.747Z,31.75
2023-02-09T19:16:00.478Z,30.35
2023-02-09T19:18:49.561Z,31.23
2023-02-09T19:21:37.550Z,28.92
2023-02-09T19:24:25.694Z,33.67
2023-02-09T19:27:13.814Z,34.45
2023-02-09T19:30:01.442Z,32.75
2023-02-09T19:32:48.982Z,32.50
2023-02-09T19:35:37.859Z,31.45
2023-02-09T19:38:26.003Z,31.83
2023-02-09T19:41:13.796Z,31.15
2023-02-09T19:44:01.625Z,30.75
2023-02-09T19:46:49.448Z,32.72
2023-02-09T19:49:38.877Z,33.17
2023-02-09T19:52:29.725Z,32.25
2023-02-09T19:55:17.332Z,35.38
2023-02-09T19:58:04.741Z,32.53
2023-02-09T20:00:55.076Z,45.25
2023-02-09T20:03:43.495Z,31.85
2023-02-09T20:06:33.745Z,34.20
2023-02-09T20:09:22.898Z,34.70
2023-02-09T20:12:10.773Z,31.00
2023-02-09T20:14:58.610Z,35.83
2023-02-09T20:20:34.700Z,35.58
2023-02-09T20:23:22.291Z,33.40
2023-02-09T20:26:18.538Z,35.95
2023-02-09T20:29:06.690Z,32.08
2023-02-09T20:31:54.581Z,31.90
2023-02-09T20:34:42.414Z,32.60
2023-02-09T20:37:30.082Z,35.25
2023-02-09T20:40:18.117Z,33.63
2023-02-09T20:43:39.269Z,36.17
2023-02-09T20:46:48.472Z,34.03
2023-02-09T20:49:37.018Z,34.67
2023-02-09T20:52:24.714Z,36.63
2023-02-09T20:55:12.558Z,36.75
2023-02-09T20:58:00.202Z,32.85
2023-02-09T21:00:49.584Z,34.80
2023-02-09T21:03:37.732Z,35.90
2023-02-09T21:06:27.044Z,34.58
2023-02-09T21:09:16.747Z,32.17
2023-02-09T21:12:04.572Z,36.40
2023-02-09T21:14:53.037Z,36.30
2023-02-09T21:17:47.549Z,32.25
2023-02-09T21:20:36.105Z,38.30
2023-02-09T21:23:23.893Z,34.00
2023-02-09T21:26:16.444Z,35.33
2023-02-09T21:29:04.329Z,35.17
2023-02-09T21:31:52.393Z,33.72
2023-02-09T21:34:41.442Z,36.78
2023-02-09T21:37:32.037Z,35.65
2023-02-09T21:40:21.035Z,38.92
2023-02-09T21:43:09.001Z,35.65
2023-02-09T21:45:56.741Z,38.00
2023-02-09T21:48:44.068Z,35.75
2023-02-09T21:51:32.783Z,36.90
2023-02-09T21:54:20.619Z,36.60
2023-02-09T21:57:07.978Z,34.85
2023-02-09T21:59:55.530Z,33.70
2023-02-09T22:02:43.142Z,34.88
2023-02-09T22:05:30.689Z,36.13
2023-02-09T22:08:19.603Z,36.92
2023-02-09T22:11:08.278Z,38.92
2023-02-09T22:13:55.789Z,38.17
2023-02-09T22:16:43.997Z,35.03
2023-02-09T22:19:31.582Z,33.80
2023-02-09T22:22:19.427Z,38.10
2023-02-09T22:25:09.621Z,37.08
2023-02-09T22:27:57.267Z,38.92
2023-02-09T22:30:44.861Z,40.75
2023-02-09T22:33:32.693Z,37.78
2023-02-09T22:36:21.854Z,37.83
2023-02-09T22:39:09.905Z,36.85
2023-02-09T22:41:59.572Z,36.47
2023-02-09T22:44:47.593Z,35.30
2023-02-09T22:47:35.899Z,37.10
2023-02-09T22:50:23.791Z,39.80
2023-02-09T22:53:11.549Z,40.92
2023-02-09T22:55:59.073Z,36.97
2023-02-09T22:58:48.313Z,36.63
2023-02-09T23:01:36.106Z,40.60
2023-02-09T23:04:24.101Z,36.38
2023-02-09T23:07:11.721Z,38.03
2023-02-09T23:09:59.472Z,39.42
2023-02-09T23:12:46.892Z,37.38
2023-02-09T23:15:35.745Z,46.42
2023-02-09T23:18:23.418Z,38.38
2023-02-09T23:21:11.104Z,37.88
2023-02-09T23:23:59.809Z,40.33
2023-02-09T23:26:47.402Z,54.20
2023-02-09T23:29:35.045Z,37.60
2023-02-09T23:32:24.005Z,41.40
2023-02-09T23:35:13.505Z,38.42
2023-02-09T23:38:01.870Z,33.40
2023-02-09T23:40:49.697Z,63.17
2023-02-09T23:43:38.131Z,37.30
2023-02-09T23:46:28.913Z,44.08
2023-02-09T23:49:18.152Z,41.10
2023-02-09T23:52:06.189Z,40.60
2023-02-09T23:54:53.616Z,39.08
2023-02-09T23:57:40.913Z,42.72
